createdAt,value
2022-10-26T00:00:50.677Z,8.87
2022-10-26T00:03:21.380Z,8.50
2022-10-26T00:05:51.190Z,8.70
2022-10-26T00:08:23.515Z,8.80
2022-10-26T00:10:53.259Z,8.03
2022-10-26T00:13:22.979Z,8.97
2022-10-26T00:15:52.750Z,9.00
2022-10-26T00:18:22.498Z,9.03
2022-10-26T00:20:52.600Z,8.17
2022-10-26T00:23:24.962Z,8.50
2022-10-26T00:25:58.470Z,9.27
2022-10-26T00:28:28.432Z,8.67
2022-10-26T00:31:03.030Z,8.60
2022-10-26T00:33:33.300Z,8.83
2022-10-26T00:36:03.118Z,9.57
2022-10-26T00:38:35.501Z,10.00
2022-10-26T00:41:05.271Z,8.70
2022-10-26T00:43:40.227Z,9.57
2022-10-26T00:46:16.251Z,9.40
2022-10-26T00:48:50.091Z,8.90
2022-10-26T00:51:26.615Z,10.17
2022-10-26T00:53:59.397Z,9.20
2022-10-26T00:56:30.120Z,8.60
2022-10-26T00:59:03.641Z,8.53
2022-10-26T01:01:36.324Z,8.60
2022-10-26T01:04:06.411Z,7.70
2022-10-26T01:06:39.324Z,8.77
2022-10-26T01:09:12.918Z,8.70
2022-10-26T01:11:42.646Z,8.03
2022-10-26T01:14:13.815Z,8.30
2022-10-26T01:17:00.189Z,9.23
2022-10-26T01:20:00.463Z,6.47
2022-10-26T01:22:35.388Z,6.20
2022-10-26T01:25:27.528Z,6.57
2022-10-26T01:27:57.610Z,7.97
2022-10-26T01:30:38.084Z,9.17
2022-10-26T01:33:18.733Z,7.60
2022-10-26T01:35:56.212Z,6.90
2022-10-26T01:38:33.632Z,7.63
2022-10-26T01:41:11.263Z,8.30
2022-10-26T01:43:45.395Z,7.67
2022-10-26T01:46:20.904Z,7.37
2022-10-26T01:48:52.919Z,7.23
2022-10-26T01:51:23.768Z,9.30
2022-10-26T01:53:53.632Z,8.00
2022-10-26T01:56:26.200Z,8.40
2022-10-26T01:59:22.179Z,9.43
2022-10-26T02:02:21.743Z,7.70
2022-10-26T02:05:13.249Z,7.83
2022-10-26T02:07:52.442Z,7.87
2022-10-26T02:10:33.521Z,7.60
2022-10-26T02:13:09.783Z,7.97
2022-10-26T02:15:48.931Z,7.60
2022-10-26T02:18:29.910Z,7.00
2022-10-26T02:21:15.413Z,7.30
2022-10-26T02:23:48.194Z,7.20
2022-10-26T02:26:22.402Z,7.93
2022-10-26T02:28:56.703Z,8.10
2022-10-26T02:31:28.843Z,7.17
2022-10-26T02:34:03.116Z,7.13
2022-10-26T02:36:39.230Z,7.70
2022-10-26T02:39:12.135Z,7.07
2022-10-26T02:41:43.624Z,7.30
2022-10-26T02:44:19.907Z,7.43
2022-10-26T02:46:49.864Z,7.03
2022-10-26T02:49:19.971Z,7.57
2022-10-26T02:51:56.107Z,6.50
2022-10-26T02:54:33.827Z,6.73
2022-10-26T02:57:06.420Z,7.00
2022-10-26T02:59:40.188Z,6.20
2022-10-26T03:02:09.986Z,6.93
2022-10-26T03:04:39.787Z,7.30
2022-10-26T03:07:12.302Z,7.07
2022-10-26T03:09:42.111Z,7.03
2022-10-26T03:12:11.866Z,7.20
2022-10-26T03:14:41.663Z,6.40
2022-10-26T03:17:11.455Z,6.27
2022-10-26T03:19:41.193Z,6.37
2022-10-26T03:22:13.537Z,5.93
2022-10-26T03:24:43.251Z,6.03
2022-10-26T03:27:12.963Z,5.73
2022-10-26T03:29:42.868Z,6.23
2022-10-26T03:32:12.916Z,6.40
2022-10-26T03:34:42.702Z,6.80
2022-10-26T03:37:15.055Z,6.40
2022-10-26T03:39:44.851Z,6.37
2022-10-26T03:42:14.682Z,5.87
2022-10-26T03:44:44.424Z,5.77
2022-10-26T03:47:14.115Z,5.90
2022-10-26T03:49:43.844Z,5.07
2022-10-26T03:52:16.168Z,5.80
2022-10-26T03:54:45.911Z,6.00
2022-10-26T03:57:15.636Z,5.63
2022-10-26T03:59:45.375Z,5.70
2022-10-26T04:02:15.323Z,5.47
2022-10-26T04:04:45.036Z,6.40
2022-10-26T04:07:17.352Z,5.50
2022-10-26T04:09:47.098Z,5.33
2022-10-26T04:12:16.823Z,5.83
2022-10-26T04:14:46.670Z,5.33
2022-10-26T04:17:16.397Z,5.37
2022-10-26T04:19:46.136Z,6.13
2022-10-26T04:22:18.419Z,5.57
2022-10-26T04:24:49.376Z,5.63
2022-10-26T04:27:19.102Z,6.30
2022-10-26T04:29:48.845Z,5.83
2022-10-26T04:32:18.568Z,5.77
2022-10-26T04:34:48.310Z,6.17
2022-10-26T04:37:20.614Z,5.70
2022-10-26T04:39:50.367Z,6.07
2022-10-26T04:42:20.109Z,5.20
2022-10-26T04:44:49.834Z,5.83
2022-10-26T04:47:19.584Z,6.10
2022-10-26T04:49:49.410Z,5.47
2022-10-26T04:52:21.716Z,5.30
2022-10-26T04:54:51.464Z,5.57
2022-10-26T04:57:21.183Z,5.80
2022-10-26T04:59:50.922Z,5.83
2022-10-26T05:02:21.258Z,5.43
2022-10-26T05:04:51.469Z,6.23
2022-10-26T05:07:25.042Z,4.90
2022-10-26T05:09:55.879Z,5.10
2022-10-26T05:12:26.188Z,5.43
2022-10-26T05:14:59.020Z,5.10
2022-10-26T05:17:29.836Z,5.30
2022-10-26T05:20:00.595Z,5.53
2022-10-26T05:22:33.362Z,5.80
2022-10-26T05:25:03.165Z,5.63
2022-10-26T05:27:32.967Z,6.90
2022-10-26T05:30:02.869Z,6.60
2022-10-26T05:32:33.757Z,7.00
2022-10-26T05:35:03.584Z,6.30
2022-10-26T05:37:36.967Z,6.13
2022-10-26T05:40:09.315Z,6.73
2022-10-26T05:42:40.150Z,6.07
2022-10-26T05:45:11.865Z,6.03
2022-10-26T05:47:43.336Z,6.10
2022-10-26T05:50:14.275Z,6.00
2022-10-26T05:52:49.389Z,5.07
2022-10-26T05:55:20.632Z,5.03
2022-10-26T05:57:52.393Z,5.27
2022-10-26T06:00:25.026Z,4.90
2022-10-26T06:03:15.578Z,4.50
2022-10-26T06:05:55.285Z,4.87
2022-10-26T06:08:31.132Z,6.63
2022-10-26T06:11:03.723Z,6.33
2022-10-26T06:13:34.298Z,5.93
2022-10-26T06:16:22.227Z,6.10
2022-10-26T06:19:06.340Z,6.20
2022-10-26T06:21:54.702Z,6.50
2022-10-26T06:24:39.404Z,6.50
2022-10-26T06:27:19.668Z,6.20
2022-10-26T06:29:59.825Z,6.53
2022-10-26T06:32:29.955Z,5.47
2022-10-26T06:35:12.405Z,6.87
2022-10-26T06:37:45.385Z,5.70
2022-10-26T06:40:20.054Z,5.30
2022-10-26T06:42:50.502Z,5.70
2022-10-26T06:45:21.462Z,6.47
2022-10-26T06:47:59.279Z,5.93
2022-10-26T06:50:35.706Z,6.40
2022-10-26T06:53:15.492Z,6.77
2022-10-26T06:55:51.115Z,7.07
2022-10-26T06:58:25.222Z,7.60
2022-10-26T07:00:57.238Z,6.63
2022-10-26T07:03:27.192Z,6.63
2022-10-26T07:05:58.082Z,6.20
2022-10-26T07:08:28.840Z,6.17
2022-10-26T07:11:02.191Z,6.80
2022-10-26T07:13:31.975Z,6.17
2022-10-26T07:16:01.801Z,6.93
2022-10-26T07:18:31.584Z,7.50
2022-10-26T07:21:02.582Z,7.50
2022-10-26T07:23:33.392Z,7.97
2022-10-26T07:26:06.872Z,8.47
2022-10-26T07:28:38.026Z,7.90
2022-10-26T07:31:08.943Z,7.77
2022-10-26T07:33:41.553Z,8.13
2022-10-26T07:36:13.324Z,7.60
2022-10-26T07:38:43.144Z,7.50
2022-10-26T07:41:17.546Z,7.90
2022-10-26T07:43:50.787Z,8.77
2022-10-26T07:46:22.623Z,8.63
2022-10-26T07:48:52.516Z,8.40
2022-10-26T07:51:24.462Z,8.50
2022-10-26T07:53:54.321Z,9.30
2022-10-26T07:56:28.818Z,9.10
2022-10-26T07:59:01.282Z,9.10
2022-10-26T08:01:32.531Z,9.10
2022-10-26T08:04:03.411Z,8.90
2022-10-26T08:06:35.013Z,9.70
2022-10-26T08:09:07.055Z,9.50
2022-10-26T08:11:40.625Z,10.03
2022-10-26T08:14:12.984Z,9.10
2022-10-26T08:16:44.722Z,8.90
2022-10-26T08:19:16.188Z,8.70
2022-10-26T08:21:47.187Z,8.57
2022-10-26T08:24:18.149Z,8.47
2022-10-26T08:26:51.521Z,8.77
2022-10-26T08:29:22.368Z,9.13
2022-10-26T08:31:54.423Z,9.20
2022-10-26T08:34:25.609Z,8.10
2022-10-26T08:36:55.427Z,9.17
2022-10-26T08:39:28.543Z,7.80
2022-10-26T08:42:08.286Z,8.40
2022-10-26T08:44:42.647Z,7.90
2022-10-26T08:47:20.718Z,8.03
2022-10-26T08:49:57.789Z,7.50
2022-10-26T08:52:35.646Z,7.50
2022-10-26T08:55:13.664Z,7.10
2022-10-26T08:57:48.154Z,7.57
2022-10-26T09:00:21.887Z,7.07
2022-10-26T09:02:53.730Z,6.90
2022-10-26T09:05:30.434Z,6.50
2022-10-26T09:08:12.555Z,6.40
2022-10-26T09:10:51.903Z,6.40
2022-10-26T09:13:31.051Z,6.07
2022-10-26T09:16:09.617Z,5.87
2022-10-26T09:18:49.665Z,7.00
2022-10-26T09:21:34.635Z,6.90
2022-10-26T09:24:11.044Z,6.37
2022-10-26T09:26:46.791Z,5.37
2022-10-26T09:29:21.533Z,6.30
2022-10-26T09:31:53.467Z,6.10
2022-10-26T09:34:31.898Z,5.80
2022-10-26T09:37:01.667Z,5.90
2022-10-26T09:39:41.976Z,5.93
2022-10-26T09:42:20.177Z,5.80
2022-10-26T09:44:57.700Z,6.63
2022-10-26T09:47:36.416Z,5.40
2022-10-26T09:50:19.302Z,6.70
2022-10-26T09:52:50.582Z,6.20
2022-10-26T09:55:22.991Z,5.07
2022-10-26T09:57:56.319Z,4.70
2022-10-26T10:00:30.745Z,4.90
2022-10-26T10:03:01.344Z,5.03
2022-10-26T10:08:26.474Z,4.40
2022-10-26T10:11:03.063Z,4.30
2022-10-26T10:13:34.365Z,6.83
2022-10-26T10:16:15.399Z,5.20
2022-10-26T10:18:45.398Z,4.30
2022-10-26T10:21:16.326Z,4.43
2022-10-26T10:23:54.709Z,3.77
2022-10-26T10:26:24.596Z,3.63
2022-10-26T10:29:03.857Z,3.10
2022-10-26T10:31:36.914Z,3.53
2022-10-26T10:34:19.113Z,3.03
2022-10-26T10:36:49.915Z,3.63
2022-10-26T10:39:41.396Z,3.27
2022-10-26T10:42:21.296Z,2.90
2022-10-26T10:44:55.624Z,3.63
2022-10-26T10:47:31.754Z,1.97
2022-10-26T10:50:04.977Z,3.00
2022-10-26T10:52:36.648Z,3.20
2022-10-26T10:55:19.639Z,2.30
2022-10-26T10:58:05.810Z,2.80
2022-10-26T11:00:39.521Z,2.20
2022-10-26T11:03:27.303Z,2.93
2022-10-26T11:06:19.090Z,2.07
2022-10-26T11:08:53.214Z,1.83
2022-10-26T11:11:27.361Z,1.50
2022-10-26T11:14:04.311Z,1.30
2022-10-26T11:16:38.903Z,1.60
2022-10-26T11:19:22.726Z,1.40
2022-10-26T11:21:56.010Z,1.00
2022-10-26T11:24:29.894Z,1.40
2022-10-26T11:27:03.902Z,1.50
2022-10-26T11:29:43.479Z,1.60
2022-10-26T11:32:20.595Z,1.60
2022-10-26T11:34:58.727Z,1.90
2022-10-26T11:37:37.629Z,1.67
2022-10-26T11:40:22.233Z,1.53
2022-10-26T11:42:57.648Z,2.00
2022-10-26T11:45:31.568Z,1.97
2022-10-26T11:48:09.525Z,2.40
2022-10-26T11:50:46.026Z,1.83
2022-10-26T11:53:20.517Z,1.70
2022-10-26T11:55:55.067Z,1.57
2022-10-26T11:58:27.456Z,1.87
2022-10-26T12:01:03.692Z,2.50
2022-10-26T12:03:40.403Z,2.00
2022-10-26T12:06:14.603Z,1.40
2022-10-26T12:08:50.334Z,1.60
2022-10-26T12:11:34.894Z,1.40
2022-10-26T12:14:16.198Z,1.57
2022-10-26T12:16:57.240Z,1.60
2022-10-26T12:19:32.036Z,1.67
2022-10-26T12:22:06.220Z,1.80
2022-10-26T12:24:38.873Z,1.40
2022-10-26T12:27:09.324Z,1.67
2022-10-26T12:29:42.839Z,1.60
2022-10-26T12:32:52.805Z,1.73
2022-10-26T12:35:43.173Z,1.40
2022-10-26T12:38:50.329Z,1.50
2022-10-26T12:41:26.456Z,1.70
2022-10-26T12:44:02.756Z,1.67
2022-10-26T12:46:45.572Z,1.87
2022-10-26T12:50:00.526Z,1.57
2022-10-26T12:52:46.596Z,1.63
2022-10-26T12:55:49.167Z,1.97
2022-10-26T12:58:48.450Z,2.10
2022-10-26T13:04:52.790Z,1.67
2022-10-26T13:07:25.270Z,1.80
2022-10-26T13:10:01.171Z,1.83
2022-10-26T13:12:38.700Z,1.60
2022-10-26T13:15:24.238Z,1.83
2022-10-26T13:18:01.549Z,2.30
2022-10-26T13:20:33.392Z,2.00
2022-10-26T13:23:04.091Z,1.33
2022-10-26T13:25:34.868Z,1.60
2022-10-26T13:28:08.670Z,1.77
2022-10-26T13:30:51.155Z,1.57
2022-10-26T13:33:25.556Z,2.00
2022-10-26T13:36:00.668Z,1.87
2022-10-26T13:38:36.419Z,1.60
2022-10-26T13:41:18.158Z,2.10
2022-10-26T13:43:49.723Z,1.47
2022-10-26T13:46:32.459Z,1.50
2022-10-26T13:49:16.745Z,1.83
2022-10-26T13:51:49.697Z,1.87
2022-10-26T13:54:26.396Z,1.60
2022-10-26T13:57:15.776Z,1.50
2022-10-26T13:59:48.128Z,1.20
2022-10-26T14:02:25.405Z,3.20
2022-10-26T14:04:56.826Z,1.37
2022-10-26T14:07:34.793Z,1.40
2022-10-26T14:10:04.860Z,2.03
2022-10-26T14:12:35.714Z,1.80
2022-10-26T14:15:09.323Z,1.87
2022-10-26T14:17:42.905Z,2.20
2022-10-26T14:20:21.361Z,1.60
2022-10-26T14:22:52.135Z,2.10
2022-10-26T14:25:35.803Z,2.73
2022-10-26T14:28:24.931Z,2.00
2022-10-26T14:30:55.037Z,1.60
2022-10-26T14:33:31.715Z,2.00
2022-10-26T14:36:02.533Z,1.53
2022-10-26T14:38:41.627Z,1.70
2022-10-26T14:41:11.789Z,2.10
2022-10-26T14:43:42.040Z,2.00
2022-10-26T14:46:18.351Z,2.10
2022-10-26T14:49:02.463Z,2.70
2022-10-26T14:51:37.155Z,1.87
2022-10-26T14:54:07.548Z,2.03
2022-10-26T14:56:43.460Z,1.80
2022-10-26T14:59:14.640Z,2.37
2022-10-26T15:01:53.454Z,1.70
2022-10-26T15:04:34.499Z,2.70
2022-10-26T15:07:10.555Z,2.67
2022-10-26T15:09:46.233Z,2.00
2022-10-26T15:12:34.296Z,1.60
2022-10-26T15:15:23.515Z,2.30
2022-10-26T15:17:56.233Z,1.60
2022-10-26T15:20:30.678Z,1.83
2022-10-26T15:23:02.869Z,3.00
2022-10-26T15:25:35.865Z,2.20
2022-10-26T15:28:12.928Z,2.50
2022-10-26T15:31:01.350Z,2.07
2022-10-26T15:33:32.039Z,2.03
2022-10-26T15:36:21.366Z,2.13
2022-10-26T15:38:51.793Z,2.50
2022-10-26T15:41:24.746Z,2.20
2022-10-26T15:43:56.714Z,2.57
2022-10-26T15:46:27.461Z,1.80
2022-10-26T15:49:00.246Z,2.53
2022-10-26T15:51:33.742Z,2.37
2022-10-26T15:54:07.024Z,2.50
2022-10-26T15:56:36.861Z,3.00
2022-10-26T15:59:06.628Z,2.97
2022-10-26T16:01:36.736Z,2.50
2022-10-26T16:04:07.007Z,3.80
2022-10-26T16:06:42.963Z,3.00
2022-10-26T16:09:17.839Z,3.83
2022-10-26T16:11:48.660Z,4.10
2022-10-26T16:14:19.435Z,3.80
2022-10-26T16:16:49.173Z,3.60
2022-10-26T16:19:30.291Z,3.30
2022-10-26T16:22:04.024Z,4.07
2022-10-26T16:24:34.740Z,3.10
2022-10-26T16:27:04.707Z,3.20
2022-10-26T16:29:34.512Z,2.97
2022-10-26T16:32:04.410Z,3.30
2022-10-26T16:34:34.216Z,2.87
2022-10-26T16:37:07.538Z,3.10
2022-10-26T16:39:37.447Z,2.83
2022-10-26T16:42:07.641Z,2.30
2022-10-26T16:44:38.024Z,3.10
2022-10-26T16:47:07.906Z,2.70
2022-10-26T16:49:38.651Z,3.47
2022-10-26T16:52:11.083Z,3.70
2022-10-26T16:54:40.908Z,3.60
2022-10-26T16:57:11.726Z,3.73
2022-10-26T16:59:41.458Z,2.50
2022-10-26T17:02:13.282Z,2.63
2022-10-26T17:04:46.222Z,3.10
2022-10-26T17:07:18.668Z,2.60
2022-10-26T17:09:48.522Z,2.60
2022-10-26T17:12:18.399Z,3.40
2022-10-26T17:14:49.268Z,3.30
2022-10-26T17:17:20.131Z,3.73
2022-10-26T17:19:50.960Z,2.93
2022-10-26T17:22:24.408Z,2.90
2022-10-26T17:24:55.240Z,3.23
2022-10-26T17:27:26.767Z,3.00
2022-10-26T17:29:58.625Z,3.70
2022-10-26T17:32:28.412Z,3.50
2022-10-26T17:34:58.223Z,3.30
2022-10-26T17:37:30.712Z,3.50
2022-10-26T17:40:01.530Z,3.47
2022-10-26T17:42:32.363Z,3.63
2022-10-26T17:45:02.202Z,3.57
2022-10-26T17:47:32.059Z,3.70
2022-10-26T17:50:03.464Z,3.47
2022-10-26T17:52:36.903Z,4.00
2022-10-26T17:55:08.399Z,3.40
2022-10-26T17:57:39.442Z,3.10
2022-10-26T18:00:10.932Z,4.30
2022-10-26T18:02:43.345Z,3.43
2022-10-26T18:05:13.934Z,3.13
2022-10-26T18:07:47.614Z,4.10
2022-10-26T18:10:37.140Z,3.77
2022-10-26T18:13:07.837Z,4.03
2022-10-26T18:15:38.436Z,3.93
2022-10-26T18:18:09.529Z,4.50
2022-10-26T18:20:39.689Z,4.93
2022-10-26T18:23:12.119Z,4.47
2022-10-26T18:25:42.922Z,4.40
2022-10-26T18:28:12.768Z,4.20
2022-10-26T18:30:43.854Z,4.33
2022-10-26T18:33:14.252Z,4.60
2022-10-26T18:35:46.295Z,4.10
2022-10-26T18:38:19.995Z,3.93
2022-10-26T18:40:54.707Z,4.00
2022-10-26T18:43:25.177Z,4.63
2022-10-26T18:46:04.731Z,5.00
2022-10-26T18:48:36.027Z,5.03
2022-10-26T18:51:06.186Z,4.70
2022-10-26T18:53:43.733Z,4.70
2022-10-26T18:56:16.093Z,4.83
2022-10-26T18:58:48.718Z,5.17
2022-10-26T19:01:22.590Z,4.90
2022-10-26T19:03:56.627Z,4.63
2022-10-26T19:06:29.505Z,3.93
2022-10-26T19:09:02.879Z,5.10
2022-10-26T19:11:34.538Z,5.80
2022-10-26T19:14:05.356Z,4.43
2022-10-26T19:16:51.614Z,5.33
2022-10-26T19:19:25.342Z,4.23
2022-10-26T19:21:55.373Z,4.47
2022-10-26T19:24:31.084Z,5.00
2022-10-26T19:27:02.491Z,4.60
2022-10-26T19:29:33.536Z,4.90
2022-10-26T19:32:03.378Z,6.00
2022-10-26T19:34:34.502Z,5.40
2022-10-26T19:37:05.682Z,5.30
2022-10-26T19:39:40.274Z,6.40
2022-10-26T19:42:10.406Z,5.03
2022-10-26T19:44:41.426Z,5.37
2022-10-26T19:47:11.239Z,5.30
2022-10-26T19:49:42.319Z,5.53
2022-10-26T19:52:13.490Z,5.23
2022-10-26T19:54:45.838Z,4.67
2022-10-26T19:57:16.960Z,4.83
2022-10-26T19:59:47.040Z,4.47
2022-10-26T20:02:18.843Z,6.23
2022-10-26T20:04:48.637Z,5.00
2022-10-26T20:07:19.043Z,5.07
2022-10-26T20:09:53.714Z,4.53
2022-10-26T20:12:23.911Z,4.63
2022-10-26T20:14:54.952Z,4.80
2022-10-26T20:17:29.564Z,5.07
2022-10-26T20:19:59.436Z,5.60
2022-10-26T20:22:30.235Z,5.60
2022-10-26T20:25:02.650Z,4.90
2022-10-26T20:27:33.778Z,5.60
2022-10-26T20:30:04.574Z,5.10
2022-10-26T20:32:34.316Z,4.73
2022-10-26T20:35:04.007Z,5.47
2022-10-26T20:37:34.515Z,4.57
2022-10-26T20:40:08.535Z,4.47
2022-10-26T20:42:39.424Z,4.23
2022-10-26T20:45:13.328Z,4.80
2022-10-26T20:47:44.105Z,4.70
2022-10-26T20:50:15.907Z,4.93
2022-10-26T20:52:51.885Z,5.30
2022-10-26T20:55:31.928Z,4.10
2022-10-26T20:58:06.112Z,4.30
2022-10-26T21:00:43.908Z,4.30
2022-10-26T21:03:15.058Z,4.00
2022-10-26T21:05:48.815Z,4.40
2022-10-26T21:08:18.572Z,3.80
2022-10-26T21:10:52.110Z,3.47
2022-10-26T21:13:22.136Z,4.70
2022-10-26T21:15:51.848Z,4.03
2022-10-26T21:18:21.606Z,4.20
2022-10-26T21:20:51.468Z,4.40
2022-10-26T21:23:21.240Z,3.80
2022-10-26T21:25:57.184Z,3.33
2022-10-26T21:28:26.979Z,3.73
2022-10-26T21:30:56.703Z,3.60
2022-10-26T21:33:31.986Z,3.70
2022-10-26T21:36:01.759Z,3.73
2022-10-26T21:38:33.133Z,3.30
2022-10-26T21:41:10.060Z,4.00
2022-10-26T21:43:41.389Z,4.10
2022-10-26T21:46:12.757Z,4.20
2022-10-26T21:48:42.702Z,3.73
2022-10-26T21:51:16.120Z,4.13
2022-10-26T21:53:46.434Z,4.43
2022-10-26T21:56:20.883Z,4.20
2022-10-26T21:58:51.126Z,3.97
2022-10-26T22:01:22.701Z,4.80
2022-10-26T22:03:52.705Z,4.20
2022-10-26T22:06:24.292Z,4.23
2022-10-26T22:08:54.075Z,3.77
2022-10-26T22:11:27.476Z,4.70
2022-10-26T22:13:57.617Z,4.00
2022-10-26T22:16:28.988Z,4.30
2022-10-26T22:19:01.594Z,5.53
2022-10-26T22:21:34.930Z,4.60
2022-10-26T22:24:04.847Z,5.90
2022-10-26T22:26:39.479Z,5.87
2022-10-26T22:29:09.257Z,4.70
2022-10-26T22:31:42.140Z,5.63
2022-10-26T22:34:18.771Z,5.43
2022-10-26T22:36:48.497Z,4.70
2022-10-26T22:39:18.330Z,5.33
2022-10-26T22:41:50.860Z,4.90
2022-10-26T22:44:20.543Z,4.37
2022-10-26T22:46:50.271Z,4.57
2022-10-26T22:49:19.964Z,4.53
2022-10-26T22:51:49.743Z,4.67
2022-10-26T22:54:19.835Z,4.40
2022-10-26T22:56:52.142Z,4.70
2022-10-26T22:59:21.953Z,4.70
2022-10-26T23:01:51.790Z,4.63
2022-10-26T23:04:21.606Z,5.30
2022-10-26T23:06:51.318Z,4.77
2022-10-26T23:09:21.343Z,4.20
2022-10-26T23:11:53.674Z,4.47
2022-10-26T23:14:23.378Z,5.47
2022-10-26T23:16:53.155Z,4.83
2022-10-26T23:19:22.883Z,4.90
2022-10-26T23:21:52.631Z,4.30
2022-10-26T23:24:22.341Z,3.77
2022-10-26T23:26:54.678Z,4.70
2022-10-26T23:29:24.424Z,4.60
2022-10-26T23:31:54.184Z,4.27
2022-10-26T23:34:23.915Z,4.43
2022-10-26T23:36:53.644Z,4.47
2022-10-26T23:39:23.354Z,4.50
2022-10-26T23:41:55.682Z,4.23
2022-10-26T23:44:25.410Z,4.60
2022-10-26T23:46:55.168Z,4.20
2022-10-26T23:49:24.887Z,4.40
2022-10-26T23:51:54.652Z,4.77
2022-10-26T23:54:24.390Z,4.20
2022-10-26T23:56:56.678Z,4.80
2022-10-26T23:59:26.953Z,4.53
